sensor_id;sensor_type;location;lat;lon;timestamp;temperature;humidity
25440;DHT22;13365;52.208;5.488;2022-11-27T00:00:16;11.30;96.30
25440;DHT22;13365;52.208;5.488;2022-11-27T00:02:42;11.30;96.40
25440;DHT22;13365;52.208;5.488;2022-11-27T00:05:08;11.30;96.30
25440;DHT22;13365;52.208;5.488;2022-11-27T00:07:33;11.20;96.40
25440;DHT22;13365;52.208;5.488;2022-11-27T00:09:59;11.20;96.60
25440;DHT22;13365;52.208;5.488;2022-11-27T00:12:24;11.20;96.60
25440;DHT22;13365;52.208;5.488;2022-11-27T00:14:50;11.30;96.60
25440;DHT22;13365;52.208;5.488;2022-11-27T00:17:15;11.40;96.20
25440;DHT22;13365;52.208;5.488;2022-11-27T00:19:41;11.50;96.30
25440;DHT22;13365;52.208;5.488;2022-11-27T00:22:06;11.60;96.10
25440;DHT22;13365;52.208;5.488;2022-11-27T00:24:32;11.60;95.80
25440;DHT22;13365;52.208;5.488;2022-11-27T00:26:58;11.70;95.90
25440;DHT22;13365;52.208;5.488;2022-11-27T00:29:23;11.70;95.60
25440;DHT22;13365;52.208;5.488;2022-11-27T00:31:55;11.80;95.60
25440;DHT22;13365;52.208;5.488;2022-11-27T00:34:20;11.70;95.20
25440;DHT22;13365;52.208;5.488;2022-11-27T00:36:46;11.50;95.50
25440;DHT22;13365;52.208;5.488;2022-11-27T00:39:11;11.40;95.80
25440;DHT22;13365;52.208;5.488;2022-11-27T00:41:37;11.30;96.10
25440;DHT22;13365;52.208;5.488;2022-11-27T00:44:04;11.40;96.00
25440;DHT22;13365;52.208;5.488;2022-11-27T00:46:31;11.40;95.90
25440;DHT22;13365;52.208;5.488;2022-11-27T00:48:58;11.50;95.80
25440;DHT22;13365;52.208;5.488;2022-11-27T00:51:24;11.50;95.60
25440;DHT22;13365;52.208;5.488;2022-11-27T00:53:51;11.60;95.60
25440;DHT22;13365;52.208;5.488;2022-11-27T00:56:19;11.30;95.50
25440;DHT22;13365;52.208;5.488;2022-11-27T00:58:45;11.30;95.80
25440;DHT22;13365;52.208;5.488;2022-11-27T01:01:17;11.40;96.00
25440;DHT22;13365;52.208;5.488;2022-11-27T01:03:43;11.40;95.80
25440;DHT22;13365;52.208;5.488;2022-11-27T01:06:09;11.30;95.70
25440;DHT22;13365;52.208;5.488;2022-11-27T01:08:34;11.60;95.60
25440;DHT22;13365;52.208;5.488;2022-11-27T01:11:00;11.50;95.40
25440;DHT22;13365;52.208;5.488;2022-11-27T01:13:28;11.40;95.30
25440;DHT22;13365;52.208;5.488;2022-11-27T01:16:03;11.50;95.20
25440;DHT22;13365;52.208;5.488;2022-11-27T01:18:29;11.50;95.20
25440;DHT22;13365;52.208;5.488;2022-11-27T01:20:55;11.60;95.20
25440;DHT22;13365;52.208;5.488;2022-11-27T01:23:21;11.40;95.30
25440;DHT22;13365;52.208;5.488;2022-11-27T01:25:48;11.40;95.30
25440;DHT22;13365;52.208;5.488;2022-11-27T01:28:14;11.30;95.30
25440;DHT22;13365;52.208;5.488;2022-11-27T01:30:40;11.40;95.50
25440;DHT22;13365;52.208;5.488;2022-11-27T01:33:06;11.40;95.50
25440;DHT22;13365;52.208;5.488;2022-11-27T01:35:31;11.30;95.40
25440;DHT22;13365;52.208;5.488;2022-11-27T01:37:57;11.10;95.70
25440;DHT22;13365;52.208;5.488;2022-11-27T01:40:23;11.00;96.00
25440;DHT22;13365;52.208;5.488;2022-11-27T01:42:48;10.90;96.20
25440;DHT22;13365;52.208;5.488;2022-11-27T01:45:15;10.90;96.40
25440;DHT22;13365;52.208;5.488;2022-11-27T01:47:46;10.90;96.30
25440;DHT22;13365;52.208;5.488;2022-11-27T01:50:17;10.90;96.30
25440;DHT22;13365;52.208;5.488;2022-11-27T01:52:46;10.80;96.60
25440;DHT22;13365;52.208;5.488;2022-11-27T01:57:56;11.00;96.20
25440;DHT22;13365;52.208;5.488;2022-11-27T02:00:24;10.90;96.30
25440;DHT22;13365;52.208;5.488;2022-11-27T02:02:49;10.70;96.50
25440;DHT22;13365;52.208;5.488;2022-11-27T02:05:19;10.50;97.00
25440;DHT22;13365;52.208;5.488;2022-11-27T02:07:46;10.50;97.20
25440;DHT22;13365;52.208;5.488;2022-11-27T02:10:13;10.50;97.20
25440;DHT22;13365;52.208;5.488;2022-11-27T02:15:37;10.60;97.20
25440;DHT22;13365;52.208;5.488;2022-11-27T02:18:51;10.60;97.10
25440;DHT22;13365;52.208;5.488;2022-11-27T02:21:21;10.70;96.70
25440;DHT22;13365;52.208;5.488;2022-11-27T02:29:28;10.80;96.30
25440;DHT22;13365;52.208;5.488;2022-11-27T02:35:22;10.80;96.20
25440;DHT22;13365;52.208;5.488;2022-11-27T02:38:07;10.80;96.00
25440;DHT22;13365;52.208;5.488;2022-11-27T02:40:44;10.80;96.10
25440;DHT22;13365;52.208;5.488;2022-11-27T02:43:29;10.90;96.30
25440;DHT22;13365;52.208;5.488;2022-11-27T02:45:58;10.80;96.20
25440;DHT22;13365;52.208;5.488;2022-11-27T02:48:33;10.80;95.90
25440;DHT22;13365;52.208;5.488;2022-11-27T02:51:02;11.00;95.70
25440;DHT22;13365;52.208;5.488;2022-11-27T02:53:32;11.00;95.50
25440;DHT22;13365;52.208;5.488;2022-11-27T02:56:04;11.00;95.50
25440;DHT22;13365;52.208;5.488;2022-11-27T02:58:31;11.10;95.30
25440;DHT22;13365;52.208;5.488;2022-11-27T03:00:59;11.00;95.10
25440;DHT22;13365;52.208;5.488;2022-11-27T03:03:30;11.20;95.10
25440;DHT22;13365;52.208;5.488;2022-11-27T03:06:01;11.30;94.80
25440;DHT22;13365;52.208;5.488;2022-11-27T03:08:37;11.10;94.80
25440;DHT22;13365;52.208;5.488;2022-11-27T03:11:08;11.10;94.90
25440;DHT22;13365;52.208;5.488;2022-11-27T03:13:40;11.10;94.90
25440;DHT22;13365;52.208;5.488;2022-11-27T03:18:47;11.00;95.10
25440;DHT22;13365;52.208;5.488;2022-11-27T03:23:42;10.90;95.50
25440;DHT22;13365;52.208;5.488;2022-11-27T03:26:08;10.80;95.30
25440;DHT22;13365;52.208;5.488;2022-11-27T03:28:34;10.80;95.20
25440;DHT22;13365;52.208;5.488;2022-11-27T03:31:00;10.60;95.30
25440;DHT22;13365;52.208;5.488;2022-11-27T03:33:26;10.70;95.50
25440;DHT22;13365;52.208;5.488;2022-11-27T03:35:52;10.70;95.40
25440;DHT22;13365;52.208;5.488;2022-11-27T03:38:17;10.60;95.60
25440;DHT22;13365;52.208;5.488;2022-11-27T03:41:04;10.60;95.40
25440;DHT22;13365;52.208;5.488;2022-11-27T03:43:37;10.80;95.20
25440;DHT22;13365;52.208;5.488;2022-11-27T03:46:10;10.80;95.00
25440;DHT22;13365;52.208;5.488;2022-11-27T03:48:53;10.90;94.90
25440;DHT22;13365;52.208;5.488;2022-11-27T03:51:40;10.90;94.70
25440;DHT22;13365;52.208;5.488;2022-11-27T03:56:47;10.90;94.90
25440;DHT22;13365;52.208;5.488;2022-11-27T03:59:21;10.80;94.70
25440;DHT22;13365;52.208;5.488;2022-11-27T04:01:47;10.70;94.90
25440;DHT22;13365;52.208;5.488;2022-11-27T04:04:13;10.90;94.80
25440;DHT22;13365;52.208;5.488;2022-11-27T04:06:39;10.80;94.70
25440;DHT22;13365;52.208;5.488;2022-11-27T04:09:04;10.80;94.70
25440;DHT22;13365;52.208;5.488;2022-11-27T04:11:30;10.90;94.60
25440;DHT22;13365;52.208;5.488;2022-11-27T04:13:56;10.90;94.40
25440;DHT22;13365;52.208;5.488;2022-11-27T04:16:21;10.90;94.30
25440;DHT22;13365;52.208;5.488;2022-11-27T04:18:47;10.80;94.40
25440;DHT22;13365;52.208;5.488;2022-11-27T04:21:12;10.80;94.50
25440;DHT22;13365;52.208;5.488;2022-11-27T04:23:38;10.90;94.30
25440;DHT22;13365;52.208;5.488;2022-11-27T04:26:04;11.00;94.30
25440;DHT22;13365;52.208;5.488;2022-11-27T04:28:30;10.80;94.60
25440;DHT22;13365;52.208;5.488;2022-11-27T04:30:56;10.80;94.40
25440;DHT22;13365;52.208;5.488;2022-11-27T04:33:22;10.90;94.40
25440;DHT22;13365;52.208;5.488;2022-11-27T04:35:48;11.00;94.10
25440;DHT22;13365;52.208;5.488;2022-11-27T04:38:14;10.80;94.20
25440;DHT22;13365;52.208;5.488;2022-11-27T04:40:39;10.50;94.60
25440;DHT22;13365;52.208;5.488;2022-11-27T04:43:05;10.50;94.70
25440;DHT22;13365;52.208;5.488;2022-11-27T04:45:31;10.50;94.70
25440;DHT22;13365;52.208;5.488;2022-11-27T04:47:57;10.40;94.80
25440;DHT22;13365;52.208;5.488;2022-11-27T04:50:23;10.40;95.00
25440;DHT22;13365;52.208;5.488;2022-11-27T04:52:48;10.60;94.90
25440;DHT22;13365;52.208;5.488;2022-11-27T04:55:14;10.70;94.50
25440;DHT22;13365;52.208;5.488;2022-11-27T04:57:39;10.70;94.40
25440;DHT22;13365;52.208;5.488;2022-11-27T05:00:06;10.70;94.40
25440;DHT22;13365;52.208;5.488;2022-11-27T05:02:31;10.60;94.60
25440;DHT22;13365;52.208;5.488;2022-11-27T05:04:57;10.70;94.60
25440;DHT22;13365;52.208;5.488;2022-11-27T05:07:22;10.70;94.50
25440;DHT22;13365;52.208;5.488;2022-11-27T05:09:48;10.70;94.30
25440;DHT22;13365;52.208;5.488;2022-11-27T05:12:13;10.80;94.20
25440;DHT22;13365;52.208;5.488;2022-11-27T05:14:39;10.60;94.40
25440;DHT22;13365;52.208;5.488;2022-11-27T05:17:04;10.70;94.40
25440;DHT22;13365;52.208;5.488;2022-11-27T05:19:30;10.70;94.20
25440;DHT22;13365;52.208;5.488;2022-11-27T05:21:56;10.70;94.50
25440;DHT22;13365;52.208;5.488;2022-11-27T05:24:23;10.80;94.20
25440;DHT22;13365;52.208;5.488;2022-11-27T05:26:50;10.70;94.10
25440;DHT22;13365;52.208;5.488;2022-11-27T05:29:15;10.70;94.30
25440;DHT22;13365;52.208;5.488;2022-11-27T05:31:41;10.70;94.30
25440;DHT22;13365;52.208;5.488;2022-11-27T05:34:08;10.60;94.20
25440;DHT22;13365;52.208;5.488;2022-11-27T05:36:33;10.70;94.10
25440;DHT22;13365;52.208;5.488;2022-11-27T05:39:00;10.60;94.20
25440;DHT22;13365;52.208;5.488;2022-11-27T05:41:26;10.50;94.40
25440;DHT22;13365;52.208;5.488;2022-11-27T05:43:52;10.50;94.60
25440;DHT22;13365;52.208;5.488;2022-11-27T05:46:20;10.60;94.30
25440;DHT22;13365;52.208;5.488;2022-11-27T05:48:45;10.60;94.10
25440;DHT22;13365;52.208;5.488;2022-11-27T05:51:11;10.70;94.10
25440;DHT22;13365;52.208;5.488;2022-11-27T05:53:36;10.70;94.10
25440;DHT22;13365;52.208;5.488;2022-11-27T05:56:10;10.70;94.20
25440;DHT22;13365;52.208;5.488;2022-11-27T05:58:37;10.70;94.20
25440;DHT22;13365;52.208;5.488;2022-11-27T06:01:03;10.80;94.10
25440;DHT22;13365;52.208;5.488;2022-11-27T06:03:29;11.00;93.80
25440;DHT22;13365;52.208;5.488;2022-11-27T06:05:54;10.80;93.80
25440;DHT22;13365;52.208;5.488;2022-11-27T06:08:20;11.00;93.90
25440;DHT22;13365;52.208;5.488;2022-11-27T06:10:46;11.00;93.70
25440;DHT22;13365;52.208;5.488;2022-11-27T06:13:12;11.10;93.70
25440;DHT22;13365;52.208;5.488;2022-11-27T06:15:38;11.10;93.50
25440;DHT22;13365;52.208;5.488;2022-11-27T06:18:04;11.20;93.60
25440;DHT22;13365;52.208;5.488;2022-11-27T06:20:30;11.00;93.60
25440;DHT22;13365;52.208;5.488;2022-11-27T06:22:56;10.90;93.70
25440;DHT22;13365;52.208;5.488;2022-11-27T06:25:22;10.80;93.90
25440;DHT22;13365;52.208;5.488;2022-11-27T06:27:48;10.60;94.40
25440;DHT22;13365;52.208;5.488;2022-11-27T06:30:14;10.70;94.50
25440;DHT22;13365;52.208;5.488;2022-11-27T06:32:39;10.80;94.50
25440;DHT22;13365;52.208;5.488;2022-11-27T06:35:06;10.80;94.40
25440;DHT22;13365;52.208;5.488;2022-11-27T06:37:31;10.90;94.30
25440;DHT22;13365;52.208;5.488;2022-11-27T06:39:57;10.90;94.30
25440;DHT22;13365;52.208;5.488;2022-11-27T06:42:22;11.00;94.20
25440;DHT22;13365;52.208;5.488;2022-11-27T06:44:48;11.00;94.10
25440;DHT22;13365;52.208;5.488;2022-11-27T06:47:13;11.10;94.30
25440;DHT22;13365;52.208;5.488;2022-11-27T06:49:39;11.20;93.80
25440;DHT22;13365;52.208;5.488;2022-11-27T06:52:05;11.10;93.80
25440;DHT22;13365;52.208;5.488;2022-11-27T06:54:30;11.20;94.00
25440;DHT22;13365;52.208;5.488;2022-11-27T06:56:57;11.10;94.00
25440;DHT22;13365;52.208;5.488;2022-11-27T06:59:23;11.30;93.90
25440;DHT22;13365;52.208;5.488;2022-11-27T07:01:48;11.30;93.70
25440;DHT22;13365;52.208;5.488;2022-11-27T07:04:14;11.40;93.80
25440;DHT22;13365;52.208;5.488;2022-11-27T07:06:41;11.50;93.70
25440;DHT22;13365;52.208;5.488;2022-11-27T07:09:07;11.50;93.40
25440;DHT22;13365;52.208;5.488;2022-11-27T07:11:33;11.60;93.40
25440;DHT22;13365;52.208;5.488;2022-11-27T07:14:01;11.60;93.40
25440;DHT22;13365;52.208;5.488;2022-11-27T07:16:30;11.60;93.40
25440;DHT22;13365;52.208;5.488;2022-11-27T07:18:59;11.40;93.30
25440;DHT22;13365;52.208;5.488;2022-11-27T07:21:25;11.40;94.00
25440;DHT22;13365;52.208;5.488;2022-11-27T07:23:51;11.40;93.70
25440;DHT22;13365;52.208;5.488;2022-11-27T07:26:20;11.40;93.70
25440;DHT22;13365;52.208;5.488;2022-11-27T07:28:46;11.40;93.80
25440;DHT22;13365;52.208;5.488;2022-11-27T07:31:14;11.60;93.70
25440;DHT22;13365;52.208;5.488;2022-11-27T07:33:39;11.50;93.60
25440;DHT22;13365;52.208;5.488;2022-11-27T07:38:33;11.40;94.00
25440;DHT22;13365;52.208;5.488;2022-11-27T07:41:00;11.40;94.00
25440;DHT22;13365;52.208;5.488;2022-11-27T07:43:26;11.30;94.40
25440;DHT22;13365;52.208;5.488;2022-11-27T07:45:52;11.30;94.40
25440;DHT22;13365;52.208;5.488;2022-11-27T07:48:17;11.10;94.70
25440;DHT22;13365;52.208;5.488;2022-11-27T07:50:43;11.10;95.10
25440;DHT22;13365;52.208;5.488;2022-11-27T07:53:09;11.10;95.80
25440;DHT22;13365;52.208;5.488;2022-11-27T07:55:37;11.20;95.30
25440;DHT22;13365;52.208;5.488;2022-11-27T07:58:04;11.30;95.40
25440;DHT22;13365;52.208;5.488;2022-11-27T08:00:29;11.20;95.10
25440;DHT22;13365;52.208;5.488;2022-11-27T08:02:55;11.20;95.30
25440;DHT22;13365;52.208;5.488;2022-11-27T08:05:20;11.20;95.20
25440;DHT22;13365;52.208;5.488;2022-11-27T08:07:46;11.20;95.40
25440;DHT22;13365;52.208;5.488;2022-11-27T08:10:11;11.20;95.70
25440;DHT22;13365;52.208;5.488;2022-11-27T08:12:37;11.10;95.50
25440;DHT22;13365;52.208;5.488;2022-11-27T08:15:03;11.20;95.70
25440;DHT22;13365;52.208;5.488;2022-11-27T08:17:30;11.10;95.50
25440;DHT22;13365;52.208;5.488;2022-11-27T08:19:55;11.10;95.70
25440;DHT22;13365;52.208;5.488;2022-11-27T08:22:21;11.10;95.80
25440;DHT22;13365;52.208;5.488;2022-11-27T08:24:47;11.10;95.90
25440;DHT22;13365;52.208;5.488;2022-11-27T08:27:13;11.10;95.90
25440;DHT22;13365;52.208;5.488;2022-11-27T08:29:40;11.20;95.90
25440;DHT22;13365;52.208;5.488;2022-11-27T08:32:06;11.10;95.80
25440;DHT22;13365;52.208;5.488;2022-11-27T08:34:32;11.30;95.90
25440;DHT22;13365;52.208;5.488;2022-11-27T08:36:57;11.20;96.00
25440;DHT22;13365;52.208;5.488;2022-11-27T08:39:23;11.30;95.90
25440;DHT22;13365;52.208;5.488;2022-11-27T08:41:51;11.30;95.80
25440;DHT22;13365;52.208;5.488;2022-11-27T08:44:16;11.40;95.60
25440;DHT22;13365;52.208;5.488;2022-11-27T08:46:42;11.30;95.70
25440;DHT22;13365;52.208;5.488;2022-11-27T08:49:08;11.30;95.90
25440;DHT22;13365;52.208;5.488;2022-11-27T08:51:33;11.40;95.70
25440;DHT22;13365;52.208;5.488;2022-11-27T08:53:59;11.10;96.10
25440;DHT22;13365;52.208;5.488;2022-11-27T08:56:26;11.00;96.40
25440;DHT22;13365;52.208;5.488;2022-11-27T08:58:51;10.90;96.50
25440;DHT22;13365;52.208;5.488;2022-11-27T09:01:20;10.80;96.90
25440;DHT22;13365;52.208;5.488;2022-11-27T09:03:46;11.00;97.00
25440;DHT22;13365;52.208;5.488;2022-11-27T09:06:15;10.90;96.80
25440;DHT22;13365;52.208;5.488;2022-11-27T09:08:41;11.00;96.70
25440;DHT22;13365;52.208;5.488;2022-11-27T09:11:09;11.00;96.80
25440;DHT22;13365;52.208;5.488;2022-11-27T09:13:35;11.20;96.60
25440;DHT22;13365;52.208;5.488;2022-11-27T09:16:02;11.10;96.40
25440;DHT22;13365;52.208;5.488;2022-11-27T09:18:28;10.90;96.80
25440;DHT22;13365;52.208;5.488;2022-11-27T09:21:05;10.80;97.00
25440;DHT22;13365;52.208;5.488;2022-11-27T09:23:31;11.10;97.10
25440;DHT22;13365;52.208;5.488;2022-11-27T09:26:02;11.30;96.70
25440;DHT22;13365;52.208;5.488;2022-11-27T09:28:28;11.20;96.50
25440;DHT22;13365;52.208;5.488;2022-11-27T09:30:58;11.50;96.50
25440;DHT22;13365;52.208;5.488;2022-11-27T09:33:25;11.50;96.10
25440;DHT22;13365;52.208;5.488;2022-11-27T09:35:51;11.40;96.20
25440;DHT22;13365;52.208;5.488;2022-11-27T09:38:17;11.40;96.30
25440;DHT22;13365;52.208;5.488;2022-11-27T09:40:55;11.50;96.20
25440;DHT22;13365;52.208;5.488;2022-11-27T09:43:30;11.40;96.50
25440;DHT22;13365;52.208;5.488;2022-11-27T09:46:02;11.30;96.40
25440;DHT22;13365;52.208;5.488;2022-11-27T09:48:37;11.40;96.50
25440;DHT22;13365;52.208;5.488;2022-11-27T09:51:08;11.40;96.60
25440;DHT22;13365;52.208;5.488;2022-11-27T09:53:46;11.50;96.50
25440;DHT22;13365;52.208;5.488;2022-11-27T09:56:15;11.80;96.20
25440;DHT22;13365;52.208;5.488;2022-11-27T09:58:45;11.80;96.00
25440;DHT22;13365;52.208;5.488;2022-11-27T10:01:24;11.80;96.10
25440;DHT22;13365;52.208;5.488;2022-11-27T10:03:51;11.70;96.30
25440;DHT22;13365;52.208;5.488;2022-11-27T10:09:16;11.80;96.40
25440;DHT22;13365;52.208;5.488;2022-11-27T10:12:12;11.80;96.40
25440;DHT22;13365;52.208;5.488;2022-11-27T10:14:51;11.80;96.60
25440;DHT22;13365;52.208;5.488;2022-11-27T10:17:28;11.80;96.40
25440;DHT22;13365;52.208;5.488;2022-11-27T10:25:20;11.70;96.50
25440;DHT22;13365;52.208;5.488;2022-11-27T10:31:01;11.60;96.50
25440;DHT22;13365;52.208;5.488;2022-11-27T10:33:44;11.60;96.80
25440;DHT22;13365;52.208;5.488;2022-11-27T10:36:16;11.60;96.90
25440;DHT22;13365;52.208;5.488;2022-11-27T10:38:43;11.60;96.80
25440;DHT22;13365;52.208;5.488;2022-11-27T10:43:41;11.70;97.10
25440;DHT22;13365;52.208;5.488;2022-11-27T10:46:14;11.70;97.00
25440;DHT22;13365;52.208;5.488;2022-11-27T10:48:40;11.90;96.90
25440;DHT22;13365;52.208;5.488;2022-11-27T10:51:33;11.80;96.60
25440;DHT22;13365;52.208;5.488;2022-11-27T10:54:01;11.60;96.80
25440;DHT22;13365;52.208;5.488;2022-11-27T10:56:51;11.50;97.30
25440;DHT22;13365;52.208;5.488;2022-11-27T10:59:25;11.60;97.60
25440;DHT22;13365;52.208;5.488;2022-11-27T11:01:52;11.70;97.40
25440;DHT22;13365;52.208;5.488;2022-11-27T11:04:29;11.70;97.50
25440;DHT22;13365;52.208;5.488;2022-11-27T11:06:55;11.80;97.40
25440;DHT22;13365;52.208;5.488;2022-11-27T11:09:26;11.60;97.50
25440;DHT22;13365;52.208;5.488;2022-11-27T11:12:17;11.70;97.50
25440;DHT22;13365;52.208;5.488;2022-11-27T11:14:53;11.80;97.30
25440;DHT22;13365;52.208;5.488;2022-11-27T11:17:28;11.80;97.10
25440;DHT22;13365;52.208;5.488;2022-11-27T11:19:54;11.70;97.30
25440;DHT22;13365;52.208;5.488;2022-11-27T11:22:21;12.00;97.10
25440;DHT22;13365;52.208;5.488;2022-11-27T11:24:48;12.20;96.80
25440;DHT22;13365;52.208;5.488;2022-11-27T11:27:20;12.20;96.60
25440;DHT22;13365;52.208;5.488;2022-11-27T11:34:54;12.70;95.90
25440;DHT22;13365;52.208;5.488;2022-11-27T11:39:55;12.80;95.80
25440;DHT22;13365;52.208;5.488;2022-11-27T11:42:30;12.90;95.40
25440;DHT22;13365;52.208;5.488;2022-11-27T11:47:30;12.90;95.40
25440;DHT22;13365;52.208;5.488;2022-11-27T11:49:56;12.80;95.30
25440;DHT22;13365;52.208;5.488;2022-11-27T11:52:47;12.60;95.00
25440;DHT22;13365;52.208;5.488;2022-11-27T11:55:30;12.80;95.10
25440;DHT22;13365;52.208;5.488;2022-11-27T12:00:47;13.00;94.90
25440;DHT22;13365;52.208;5.488;2022-11-27T12:06:35;12.90;94.80
25440;DHT22;13365;52.208;5.488;2022-11-27T12:11:47;12.60;94.70
25440;DHT22;13365;52.208;5.488;2022-11-27T12:14:34;12.50;94.90
25440;DHT22;13365;52.208;5.488;2022-11-27T12:25:28;12.60;95.00
25440;DHT22;13365;52.208;5.488;2022-11-27T12:39:04;12.90;94.30
25440;DHT22;13365;52.208;5.488;2022-11-27T12:44:01;13.00;94.20
25440;DHT22;13365;52.208;5.488;2022-11-27T12:46:35;12.90;94.30
25440;DHT22;13365;52.208;5.488;2022-11-27T12:49:19;13.00;94.30
25440;DHT22;13365;52.208;5.488;2022-11-27T12:51:50;12.90;94.20
25440;DHT22;13365;52.208;5.488;2022-11-27T12:54:29;12.90;94.00
25440;DHT22;13365;52.208;5.488;2022-11-27T12:56:57;12.80;94.40
25440;DHT22;13365;52.208;5.488;2022-11-27T12:59:32;12.80;94.40
25440;DHT22;13365;52.208;5.488;2022-11-27T13:04:47;13.00;94.00
25440;DHT22;13365;52.208;5.488;2022-11-27T13:10:12;12.90;94.10
25440;DHT22;13365;52.208;5.488;2022-11-27T13:12:45;12.90;94.10
25440;DHT22;13365;52.208;5.488;2022-11-27T13:15:32;13.10;93.80
25440;DHT22;13365;52.208;5.488;2022-11-27T13:20:43;13.00;93.90
25440;DHT22;13365;52.208;5.488;2022-11-27T13:23:08;12.90;93.90
25440;DHT22;13365;52.208;5.488;2022-11-27T13:25:41;12.80;94.00
25440;DHT22;13365;52.208;5.488;2022-11-27T13:28:59;12.80;94.30
25440;DHT22;13365;52.208;5.488;2022-11-27T13:30:59;12.80;94.20
25440;DHT22;13365;52.208;5.488;2022-11-27T13:33:38;12.90;94.10
25440;DHT22;13365;52.208;5.488;2022-11-27T13:36:06;12.90;93.90
25440;DHT22;13365;52.208;5.488;2022-11-27T13:38:41;12.70;94.20
25440;DHT22;13365;52.208;5.488;2022-11-27T13:41:07;12.70;94.50
25440;DHT22;13365;52.208;5.488;2022-11-27T13:43:43;12.80;94.10
25440;DHT22;13365;52.208;5.488;2022-11-27T13:46:22;12.80;94.20
25440;DHT22;13365;52.208;5.488;2022-11-27T13:49:00;12.80;94.20
25440;DHT22;13365;52.208;5.488;2022-11-27T13:51:33;12.90;94.10
25440;DHT22;13365;52.208;5.488;2022-11-27T13:54:09;13.00;94.00
25440;DHT22;13365;52.208;5.488;2022-11-27T13:56:35;12.90;94.10
25440;DHT22;13365;52.208;5.488;2022-11-27T13:59:21;12.60;94.20
25440;DHT22;13365;52.208;5.488;2022-11-27T14:02:06;12.50;94.80
25440;DHT22;13365;52.208;5.488;2022-11-27T14:04:32;12.70;94.70
25440;DHT22;13365;52.208;5.488;2022-11-27T14:07:09;12.80;94.50
25440;DHT22;13365;52.208;5.488;2022-11-27T14:12:25;12.60;95.00
25440;DHT22;13365;52.208;5.488;2022-11-27T14:15:06;12.60;94.90
25440;DHT22;13365;52.208;5.488;2022-11-27T14:17:35;12.50;94.80
25440;DHT22;13365;52.208;5.488;2022-11-27T14:20:17;12.40;95.10
25440;DHT22;13365;52.208;5.488;2022-11-27T14:22:56;12.40;95.10
25440;DHT22;13365;52.208;5.488;2022-11-27T14:28:13;12.30;95.10
25440;DHT22;13365;52.208;5.488;2022-11-27T14:30:46;12.40;95.30
25440;DHT22;13365;52.208;5.488;2022-11-27T14:33:21;12.40;95.20
25440;DHT22;13365;52.208;5.488;2022-11-27T14:35:55;12.40;95.20
25440;DHT22;13365;52.208;5.488;2022-11-27T14:38:22;12.30;95.20
25440;DHT22;13365;52.208;5.488;2022-11-27T14:40:49;12.40;95.20
25440;DHT22;13365;52.208;5.488;2022-11-27T14:43:22;12.50;95.00
25440;DHT22;13365;52.208;5.488;2022-11-27T14:45:54;12.30;94.90
25440;DHT22;13365;52.208;5.488;2022-11-27T14:48:25;12.30;95.10
25440;DHT22;13365;52.208;5.488;2022-11-27T14:50:53;12.20;95.20
25440;DHT22;13365;52.208;5.488;2022-11-27T14:53:20;12.20;95.10
25440;DHT22;13365;52.208;5.488;2022-11-27T14:55:48;12.30;95.10
25440;DHT22;13365;52.208;5.488;2022-11-27T14:58:18;12.30;94.80
25440;DHT22;13365;52.208;5.488;2022-11-27T15:01:03;12.30;94.70
25440;DHT22;13365;52.208;5.488;2022-11-27T15:03:29;12.40;94.90
25440;DHT22;13365;52.208;5.488;2022-11-27T15:06:03;12.20;94.60
25440;DHT22;13365;52.208;5.488;2022-11-27T15:08:34;12.40;94.80
25440;DHT22;13365;52.208;5.488;2022-11-27T15:11:01;12.40;94.40
25440;DHT22;13365;52.208;5.488;2022-11-27T15:13:35;12.50;94.30
25440;DHT22;13365;52.208;5.488;2022-11-27T15:16:06;12.60;94.30
25440;DHT22;13365;52.208;5.488;2022-11-27T15:18:38;12.60;94.20
25440;DHT22;13365;52.208;5.488;2022-11-27T15:21:15;12.70;94.00
25440;DHT22;13365;52.208;5.488;2022-11-27T15:23:46;12.70;93.90
25440;DHT22;13365;52.208;5.488;2022-11-27T15:26:22;12.70;93.70
25440;DHT22;13365;52.208;5.488;2022-11-27T15:28:54;12.70;93.80
25440;DHT22;13365;52.208;5.488;2022-11-27T15:31:25;12.40;94.10
25440;DHT22;13365;52.208;5.488;2022-11-27T15:33:58;12.40;94.20
25440;DHT22;13365;52.208;5.488;2022-11-27T15:36:24;12.50;94.20
25440;DHT22;13365;52.208;5.488;2022-11-27T15:38:50;12.40;94.10
25440;DHT22;13365;52.208;5.488;2022-11-27T15:41:23;12.50;94.30
25440;DHT22;13365;52.208;5.488;2022-11-27T15:43:49;12.70;94.10
25440;DHT22;13365;52.208;5.488;2022-11-27T15:46:20;12.70;93.80
25440;DHT22;13365;52.208;5.488;2022-11-27T15:48:46;12.80;93.80
25440;DHT22;13365;52.208;5.488;2022-11-27T15:51:12;12.70;93.50
25440;DHT22;13365;52.208;5.488;2022-11-27T15:53:37;12.60;93.80
25440;DHT22;13365;52.208;5.488;2022-11-27T15:56:03;12.30;94.00
25440;DHT22;13365;52.208;5.488;2022-11-27T15:58:28;12.30;94.40
25440;DHT22;13365;52.208;5.488;2022-11-27T16:00:54;12.30;94.40
25440;DHT22;13365;52.208;5.488;2022-11-27T16:03:19;12.30;94.40
25440;DHT22;13365;52.208;5.488;2022-11-27T16:05:46;12.20;94.40
25440;DHT22;13365;52.208;5.488;2022-11-27T16:08:12;12.30;94.50
25440;DHT22;13365;52.208;5.488;2022-11-27T16:10:39;12.40;94.20
25440;DHT22;13365;52.208;5.488;2022-11-27T16:13:05;12.50;94.20
25440;DHT22;13365;52.208;5.488;2022-11-27T16:15:31;12.70;94.00
25440;DHT22;13365;52.208;5.488;2022-11-27T16:17:56;12.70;93.70
25440;DHT22;13365;52.208;5.488;2022-11-27T16:20:22;12.60;93.60
25440;DHT22;13365;52.208;5.488;2022-11-27T16:22:48;12.50;93.90
25440;DHT22;13365;52.208;5.488;2022-11-27T16:25:13;12.60;93.80
25440;DHT22;13365;52.208;5.488;2022-11-27T16:27:39;12.60;94.20
25440;DHT22;13365;52.208;5.488;2022-11-27T16:30:05;12.40;94.00
25440;DHT22;13365;52.208;5.488;2022-11-27T16:32:31;12.40;93.90
25440;DHT22;13365;52.208;5.488;2022-11-27T16:34:56;12.50;94.00
25440;DHT22;13365;52.208;5.488;2022-11-27T16:37:22;12.50;94.10
25440;DHT22;13365;52.208;5.488;2022-11-27T16:39:47;12.60;93.80
25440;DHT22;13365;52.208;5.488;2022-11-27T16:42:13;12.70;93.70
25440;DHT22;13365;52.208;5.488;2022-11-27T16:44:38;12.70;93.70
25440;DHT22;13365;52.208;5.488;2022-11-27T16:47:04;12.70;93.70
25440;DHT22;13365;52.208;5.488;2022-11-27T16:49:29;12.80;93.60
25440;DHT22;13365;52.208;5.488;2022-11-27T16:51:55;12.70;93.50
25440;DHT22;13365;52.208;5.488;2022-11-27T16:54:21;12.50;93.90
25440;DHT22;13365;52.208;5.488;2022-11-27T16:56:47;12.60;94.00
25440;DHT22;13365;52.208;5.488;2022-11-27T16:59:13;12.90;93.90
25440;DHT22;13365;52.208;5.488;2022-11-27T17:01:39;12.70;93.70
25440;DHT22;13365;52.208;5.488;2022-11-27T17:04:06;12.60;94.00
25440;DHT22;13365;52.208;5.488;2022-11-27T17:06:34;12.60;94.10
25440;DHT22;13365;52.208;5.488;2022-11-27T17:09:02;12.50;94.30
25440;DHT22;13365;52.208;5.488;2022-11-27T17:11:30;12.50;94.40
25440;DHT22;13365;52.208;5.488;2022-11-27T17:14:00;12.50;94.60